createdAt,value
2018-08-31T00:00:39.859Z,11.21
2018-08-31T00:01:39.826Z,11.28
2018-08-31T00:02:39.826Z,11.24
2018-08-31T00:03:39.814Z,11.21
2018-08-31T00:04:39.817Z,11.09
2018-08-31T00:05:39.854Z,11.07
2018-08-31T00:06:39.816Z,11.03
2018-08-31T00:07:39.814Z,11.10
2018-08-31T00:08:39.810Z,11.11
2018-08-31T00:09:39.803Z,11.03
2018-08-31T00:10:39.843Z,11.10
2018-08-31T00:11:39.798Z,11.07
2018-08-31T00:12:39.795Z,11.13
2018-08-31T00:13:39.795Z,11.09
2018-08-31T00:14:39.800Z,11.02
2018-08-31T00:15:39.832Z,11.06
2018-08-31T00:16:39.798Z,10.99
2018-08-31T00:17:39.793Z,10.95
2018-08-31T00:18:39.788Z,10.92
2018-08-31T00:19:39.789Z,11.01
2018-08-31T00:20:39.820Z,11.06
2018-08-31T00:21:39.821Z,11.03
2018-08-31T00:22:39.788Z,11.03
2018-08-31T00:23:39.776Z,11.03
2018-08-31T00:24:39.774Z,11.03
2018-08-31T00:25:39.776Z,11.11
2018-08-31T00:26:39.808Z,11.25
2018-08-31T00:27:39.766Z,11.32
2018-08-31T00:28:39.766Z,11.41
2018-08-31T00:29:39.769Z,11.44
2018-08-31T00:30:39.765Z,11.72
2018-08-31T00:31:39.797Z,11.70
2018-08-31T00:32:39.758Z,11.77
2018-08-31T00:33:39.754Z,11.70
2018-08-31T00:34:39.757Z,11.82
2018-08-31T00:35:39.755Z,11.71
2018-08-31T00:36:39.791Z,11.85
2018-08-31T00:37:39.755Z,11.75
2018-08-31T00:38:39.751Z,11.86
2018-08-31T00:39:39.743Z,11.87
2018-08-31T00:40:39.747Z,11.93
2018-08-31T00:41:39.783Z,11.94
2018-08-31T00:42:39.739Z,11.94
2018-08-31T00:43:39.735Z,11.97
2018-08-31T00:44:39.749Z,11.96
2018-08-31T00:45:39.735Z,11.96
2018-08-31T00:46:39.771Z,12.04
2018-08-31T00:47:39.736Z,12.05
2018-08-31T00:48:39.731Z,12.02
2018-08-31T00:49:39.728Z,12.02
2018-08-31T00:50:39.728Z,12.13
2018-08-31T00:51:39.760Z,12.06
2018-08-31T00:52:39.721Z,12.08
2018-08-31T00:53:39.719Z,12.15
2018-08-31T00:54:39.721Z,12.12
2018-08-31T00:55:39.766Z,12.13
2018-08-31T00:56:39.716Z,12.09
2018-08-31T00:57:39.721Z,12.21
2018-08-31T00:58:39.713Z,12.09
2018-08-31T00:59:39.717Z,12.19
2018-08-31T01:00:39.749Z,12.21
2018-08-31T01:01:40.677Z,12.16
2018-08-31T01:02:39.710Z,12.13
2018-08-31T01:03:39.728Z,12.05
2018-08-31T01:04:39.701Z,12.02
2018-08-31T01:05:39.735Z,11.93
2018-08-31T01:06:39.702Z,11.93
2018-08-31T01:07:39.695Z,11.99
2018-08-31T01:08:39.695Z,11.93
2018-08-31T01:09:39.696Z,11.89
2018-08-31T01:10:39.735Z,11.82
2018-08-31T01:11:39.693Z,11.83
2018-08-31T01:12:39.691Z,11.83
2018-08-31T01:13:39.688Z,11.78
2018-08-31T01:14:39.691Z,11.78
2018-08-31T01:15:39.725Z,11.87
2018-08-31T01:16:39.691Z,11.93
2018-08-31T01:17:39.684Z,11.94
2018-08-31T01:18:39.688Z,11.90
2018-08-31T01:19:39.680Z,11.97
2018-08-31T01:20:39.720Z,11.87
2018-08-31T01:21:39.676Z,12.02
2018-08-31T01:22:39.679Z,11.99
2018-08-31T01:23:39.676Z,12.06
2018-08-31T01:24:39.674Z,12.08
2018-08-31T01:25:39.712Z,12.12
2018-08-31T01:26:39.672Z,12.23
2018-08-31T01:27:39.670Z,12.16
2018-08-31T01:28:39.668Z,12.26
2018-08-31T01:29:39.665Z,12.42
2018-08-31T01:30:39.701Z,12.42
2018-08-31T01:31:39.658Z,12.37
2018-08-31T01:32:39.665Z,12.34
2018-08-31T01:33:39.667Z,12.42
2018-08-31T01:34:39.659Z,12.45
2018-08-31T01:35:39.698Z,12.38
2018-08-31T01:36:39.655Z,12.24
2018-08-31T01:37:39.657Z,12.27
2018-08-31T01:38:39.651Z,12.21
2018-08-31T01:39:39.646Z,12.09
2018-08-31T01:40:39.698Z,12.13
2018-08-31T01:41:40.351Z,12.01
2018-08-31T01:42:39.650Z,12.04
2018-08-31T01:43:39.642Z,12.04
2018-08-31T01:44:39.648Z,12.09
2018-08-31T01:45:39.687Z,12.11
2018-08-31T01:46:39.643Z,12.01
2018-08-31T01:47:39.675Z,12.11
2018-08-31T01:48:39.640Z,12.06
2018-08-31T01:49:39.636Z,12.08
2018-08-31T01:50:39.640Z,12.06
2018-08-31T01:51:39.673Z,12.15
2018-08-31T01:52:39.680Z,12.13
2018-08-31T01:53:39.635Z,12.02
2018-08-31T01:54:39.632Z,11.96
2018-08-31T01:55:39.637Z,11.96
2018-08-31T01:56:39.664Z,12.01
2018-08-31T01:57:39.629Z,11.87
2018-08-31T01:58:39.629Z,11.96
2018-08-31T01:59:39.619Z,11.83
2018-08-31T02:00:39.657Z,11.74
2018-08-31T02:01:39.621Z,11.86
2018-08-31T02:02:39.657Z,11.83
2018-08-31T02:03:39.622Z,11.72
2018-08-31T02:04:39.618Z,11.82
2018-08-31T02:05:39.618Z,11.71
2018-08-31T02:06:39.657Z,11.83
2018-08-31T02:07:39.614Z,11.78
2018-08-31T02:08:39.614Z,11.89
2018-08-31T02:09:39.610Z,11.89
2018-08-31T02:10:39.610Z,11.80
2018-08-31T02:11:39.650Z,11.83
2018-08-31T02:12:39.602Z,11.82
2018-08-31T02:13:39.609Z,11.80
2018-08-31T02:14:39.603Z,11.74
2018-08-31T02:15:39.602Z,11.74
2018-08-31T02:16:39.635Z,11.78
2018-08-31T02:17:39.599Z,11.82
2018-08-31T02:18:39.596Z,11.87
2018-08-31T02:19:39.600Z,11.74
2018-08-31T02:20:39.596Z,11.86
2018-08-31T02:21:39.631Z,11.75
2018-08-31T02:22:39.588Z,11.82
2018-08-31T02:23:39.592Z,11.74
2018-08-31T02:24:39.588Z,11.90
2018-08-31T02:25:39.585Z,11.83
2018-08-31T02:26:39.621Z,11.86
2018-08-31T02:27:39.585Z,11.94
2018-08-31T02:28:39.585Z,11.93
2018-08-31T02:29:39.581Z,12.12
2018-08-31T02:30:39.582Z,12.12
2018-08-31T02:31:39.623Z,12.09
2018-08-31T02:32:39.583Z,12.20
2018-08-31T02:33:39.581Z,12.21
2018-08-31T02:34:39.571Z,12.21
2018-08-31T02:35:39.609Z,12.19
2018-08-31T02:36:39.574Z,12.24
2018-08-31T02:37:39.575Z,12.20
2018-08-31T02:38:39.570Z,12.15
2018-08-31T02:39:39.572Z,12.13
2018-08-31T02:40:39.604Z,12.11
2018-08-31T02:41:39.563Z,12.09
2018-08-31T02:42:39.570Z,12.02
2018-08-31T02:43:39.563Z,12.05
2018-08-31T02:44:39.560Z,11.99
2018-08-31T02:45:39.607Z,11.93
2018-08-31T02:46:39.564Z,11.97
2018-08-31T02:47:39.556Z,11.94
2018-08-31T02:48:39.561Z,11.94
2018-08-31T02:49:39.557Z,11.93
2018-08-31T02:50:39.597Z,11.97
2018-08-31T02:51:39.564Z,11.94
2018-08-31T02:52:39.569Z,11.94
2018-08-31T02:53:39.567Z,11.97
2018-08-31T02:54:39.560Z,11.97
2018-08-31T02:55:39.586Z,11.97
2018-08-31T02:56:39.562Z,11.87
2018-08-31T02:57:39.558Z,11.96
2018-08-31T02:58:39.550Z,11.90
2018-08-31T02:59:39.554Z,11.89
2018-08-31T03:00:39.577Z,11.96
2018-08-31T03:01:39.552Z,11.83
2018-08-31T03:02:39.550Z,11.80
2018-08-31T03:03:39.546Z,11.85
2018-08-31T03:04:39.546Z,11.80
2018-08-31T03:05:39.570Z,11.72
2018-08-31T03:06:39.542Z,11.70
2018-08-31T03:07:39.542Z,11.67
2018-08-31T03:08:39.540Z,11.71
2018-08-31T03:09:39.543Z,11.74
2018-08-31T03:10:39.565Z,11.75
2018-08-31T03:11:39.557Z,11.77
2018-08-31T03:12:39.538Z,11.82
2018-08-31T03:13:39.531Z,11.78
2018-08-31T03:14:39.528Z,11.72
2018-08-31T03:15:39.558Z,11.72
2018-08-31T03:16:39.528Z,11.83
2018-08-31T03:17:39.528Z,11.83
2018-08-31T03:18:39.525Z,11.87
2018-08-31T03:19:39.526Z,11.75
2018-08-31T03:20:39.548Z,11.83
2018-08-31T03:21:39.532Z,11.90
2018-08-31T03:22:39.523Z,11.82
2018-08-31T03:23:39.515Z,11.87
2018-08-31T03:24:39.514Z,11.85
2018-08-31T03:25:39.545Z,11.86
2018-08-31T03:26:39.513Z,11.90
2018-08-31T03:27:39.509Z,11.87
2018-08-31T03:28:39.513Z,11.99
2018-08-31T03:29:39.532Z,11.89
2018-08-31T03:30:39.510Z,11.85
2018-08-31T03:31:39.501Z,11.89
2018-08-31T03:32:39.504Z,11.97
2018-08-31T03:33:39.497Z,12.09
2018-08-31T03:34:39.525Z,12.02
2018-08-31T03:35:39.497Z,11.90
2018-08-31T03:36:39.559Z,12.02
2018-08-31T03:37:39.494Z,11.94
2018-08-31T03:38:39.525Z,12.04
2018-08-31T03:39:39.494Z,12.06
2018-08-31T03:40:39.517Z,12.04
2018-08-31T03:41:39.574Z,11.99
2018-08-31T03:42:39.487Z,11.96
2018-08-31T03:43:39.487Z,11.96
2018-08-31T03:44:39.492Z,11.96
2018-08-31T03:45:39.510Z,11.78
2018-08-31T03:46:39.487Z,11.83
2018-08-31T03:47:39.482Z,11.83
2018-08-31T03:48:39.479Z,11.83
2018-08-31T03:49:39.481Z,11.75
2018-08-31T03:50:39.504Z,11.71
2018-08-31T03:51:39.478Z,11.80
2018-08-31T03:52:39.470Z,11.75
2018-08-31T03:53:39.472Z,11.62
2018-08-31T03:54:39.471Z,11.67
2018-08-31T03:55:39.495Z,11.61
2018-08-31T03:56:39.468Z,11.54
2018-08-31T03:57:39.476Z,11.59
2018-08-31T03:58:39.473Z,11.57
2018-08-31T03:59:39.490Z,11.68
2018-08-31T04:00:39.465Z,11.57
2018-08-31T04:01:39.467Z,11.54
2018-08-31T04:02:39.461Z,11.47
2018-08-31T04:03:39.459Z,11.46
2018-08-31T04:04:39.486Z,11.35
2018-08-31T04:05:39.449Z,11.35
2018-08-31T04:06:39.453Z,11.41
2018-08-31T04:07:39.452Z,11.28
2018-08-31T04:08:39.450Z,11.28
2018-08-31T04:09:39.476Z,11.36
2018-08-31T04:10:39.447Z,11.24
2018-08-31T04:11:39.446Z,11.28
2018-08-31T04:12:39.441Z,11.27
2018-08-31T04:13:39.441Z,11.24
2018-08-31T04:14:39.466Z,11.24
2018-08-31T04:15:39.439Z,11.28
2018-08-31T04:16:39.435Z,11.29
2018-08-31T04:17:39.434Z,11.25
2018-08-31T04:18:39.431Z,11.29
2018-08-31T04:19:39.462Z,11.31
2018-08-31T04:20:39.432Z,11.29
2018-08-31T04:21:39.431Z,11.35
2018-08-31T04:22:39.428Z,11.35
2018-08-31T04:23:39.424Z,11.46
2018-08-31T04:24:39.453Z,11.46
2018-08-31T04:25:39.423Z,11.47
2018-08-31T04:26:39.421Z,11.49
2018-08-31T04:27:39.420Z,11.47
2018-08-31T04:28:39.417Z,11.47
2018-08-31T04:29:39.448Z,11.46
2018-08-31T04:30:39.441Z,11.49
2018-08-31T04:31:39.412Z,11.53
2018-08-31T04:32:39.410Z,11.47
2018-08-31T04:33:39.440Z,11.49
2018-08-31T04:34:39.403Z,11.46
2018-08-31T04:35:39.439Z,11.46
2018-08-31T04:36:39.401Z,11.47
2018-08-31T04:37:39.402Z,11.50
2018-08-31T04:38:39.596Z,11.61
2018-08-31T04:39:39.704Z,11.71
2018-08-31T04:40:39.426Z,11.67
2018-08-31T04:41:39.411Z,11.70
2018-08-31T04:42:39.458Z,11.68
2018-08-31T04:43:39.388Z,11.74
2018-08-31T04:44:39.395Z,11.72
2018-08-31T04:45:39.415Z,11.78
2018-08-31T04:46:39.391Z,11.72
2018-08-31T04:47:39.384Z,11.75
2018-08-31T04:48:39.384Z,11.87
2018-08-31T04:49:39.381Z,11.90
2018-08-31T04:50:44.759Z,11.90
2018-08-31T04:51:39.379Z,11.96
2018-08-31T04:52:39.374Z,11.97
2018-08-31T04:53:39.366Z,12.02
2018-08-31T04:54:39.375Z,12.04
2018-08-31T04:55:39.475Z,11.99
2018-08-31T04:56:39.372Z,12.05
2018-08-31T04:57:39.368Z,12.12
2018-08-31T04:58:39.366Z,12.19
2018-08-31T04:59:39.367Z,12.11
2018-08-31T05:00:39.397Z,12.15
2018-08-31T05:01:39.362Z,12.24
2018-08-31T05:02:39.363Z,12.16
2018-08-31T05:03:39.364Z,12.30
2018-08-31T05:04:39.363Z,12.31
2018-08-31T05:05:39.380Z,12.42
2018-08-31T05:06:39.360Z,12.42
2018-08-31T05:07:39.353Z,12.38
2018-08-31T05:08:39.437Z,12.37
2018-08-31T05:09:39.362Z,12.37
2018-08-31T05:10:39.385Z,12.44
2018-08-31T05:11:39.349Z,12.52
2018-08-31T05:12:39.344Z,12.48
2018-08-31T05:13:39.349Z,12.59
2018-08-31T05:14:39.378Z,12.54
2018-08-31T05:15:39.345Z,12.64
2018-08-31T05:16:39.374Z,12.57
2018-08-31T05:17:39.341Z,12.67
2018-08-31T05:18:39.343Z,12.67
2018-08-31T05:19:39.356Z,12.63
2018-08-31T05:20:39.488Z,12.60
2018-08-31T05:21:39.467Z,12.49
2018-08-31T05:22:39.403Z,12.38
2018-08-31T05:23:39.341Z,12.38
2018-08-31T05:24:39.358Z,12.42
2018-08-31T05:25:39.342Z,12.30
2018-08-31T05:26:39.337Z,12.33
2018-08-31T05:27:39.328Z,12.37
2018-08-31T05:28:39.327Z,12.39
2018-08-31T05:29:39.358Z,12.33
2018-08-31T05:30:39.334Z,12.41
2018-08-31T05:31:39.323Z,12.39
2018-08-31T05:32:39.323Z,12.54
2018-08-31T05:33:39.339Z,12.54
2018-08-31T05:34:39.358Z,12.46
2018-08-31T05:35:39.338Z,12.48
2018-08-31T05:36:39.321Z,12.54
2018-08-31T05:37:39.323Z,12.59
2018-08-31T05:38:39.313Z,12.69
2018-08-31T05:39:39.341Z,12.64
2018-08-31T05:40:39.322Z,12.64
2018-08-31T05:41:39.317Z,12.60
2018-08-31T05:42:39.318Z,12.60
2018-08-31T05:43:39.314Z,12.49
2018-08-31T05:44:39.348Z,12.54
2018-08-31T05:45:39.313Z,12.54
2018-08-31T05:46:39.310Z,12.57
2018-08-31T05:47:39.316Z,12.57
2018-08-31T05:48:39.312Z,12.51
2018-08-31T05:49:39.340Z,12.54
2018-08-31T05:50:39.307Z,12.52
2018-08-31T05:51:39.315Z,12.49
2018-08-31T05:52:39.307Z,12.52
2018-08-31T05:53:39.377Z,12.67
2018-08-31T05:54:39.333Z,12.64
2018-08-31T05:55:39.306Z,12.71
2018-08-31T05:56:39.309Z,12.79
2018-08-31T05:57:39.304Z,12.81
2018-08-31T05:58:39.301Z,12.88
2018-08-31T05:59:39.331Z,12.92
2018-08-31T06:00:39.299Z,13.11
2018-08-31T06:01:39.303Z,13.14
2018-08-31T06:02:39.297Z,13.24
2018-08-31T06:03:39.300Z,13.27
2018-08-31T06:04:39.328Z,13.22
2018-08-31T06:05:39.292Z,13.29
2018-08-31T06:06:39.296Z,13.54
2018-08-31T06:07:39.295Z,13.58
2018-08-31T06:08:39.298Z,13.61
2018-08-31T06:09:39.425Z,13.56
2018-08-31T06:10:39.295Z,13.59
2018-08-31T06:11:39.293Z,13.62
2018-08-31T06:12:39.291Z,13.70
2018-08-31T06:13:39.288Z,13.76
2018-08-31T06:14:39.322Z,13.76
2018-08-31T06:15:39.287Z,13.91
2018-08-31T06:16:39.292Z,13.84
2018-08-31T06:17:39.284Z,13.94
2018-08-31T06:18:39.287Z,14.01
2018-08-31T06:19:39.322Z,14.12
2018-08-31T06:20:39.287Z,14.09
2018-08-31T06:21:39.282Z,14.14
2018-08-31T06:22:39.287Z,14.20
2018-08-31T06:23:39.294Z,14.27
2018-08-31T06:24:39.311Z,14.32
2018-08-31T06:25:39.286Z,14.39
2018-08-31T06:26:39.290Z,14.37
2018-08-31T06:27:39.284Z,14.34
2018-08-31T06:28:39.316Z,14.47
2018-08-31T06:29:39.283Z,14.39
2018-08-31T06:30:39.291Z,14.44
2018-08-31T06:31:39.285Z,14.50
2018-08-31T06:32:39.326Z,14.62
2018-08-31T06:33:39.309Z,14.43
2018-08-31T06:34:39.290Z,14.61
2018-08-31T06:35:44.091Z,14.65
2018-08-31T06:36:39.282Z,14.75
2018-08-31T06:37:43.088Z,14.87
2018-08-31T06:38:39.308Z,14.99
2018-08-31T06:39:39.280Z,15.03
2018-08-31T06:40:39.292Z,15.11
2018-08-31T06:41:39.286Z,15.11
2018-08-31T06:42:39.291Z,15.08
2018-08-31T06:43:39.315Z,15.20
2018-08-31T06:44:39.286Z,15.24
2018-08-31T06:45:39.287Z,15.21
2018-08-31T06:46:39.286Z,15.17
2018-08-31T06:47:39.287Z,15.11
2018-08-31T06:48:39.312Z,15.19
2018-08-31T06:49:39.286Z,15.15
2018-08-31T06:50:39.305Z,15.03
2018-08-31T06:51:39.287Z,15.08
2018-08-31T06:52:39.319Z,15.20
2018-08-31T06:53:39.294Z,15.15
2018-08-31T06:54:39.318Z,15.26
2018-08-31T06:55:39.288Z,15.24
2018-08-31T06:56:39.292Z,15.31
2018-08-31T06:57:39.296Z,15.27
2018-08-31T06:58:39.292Z,15.43
2018-08-31T06:59:39.324Z,15.56
2018-08-31T07:00:39.290Z,15.60
2018-08-31T07:01:39.316Z,15.63
2018-08-31T07:02:39.303Z,15.75
2018-08-31T07:03:39.318Z,15.81
2018-08-31T07:04:39.325Z,15.93
2018-08-31T07:05:39.298Z,15.89
2018-08-31T07:06:39.304Z,16.01
2018-08-31T07:07:39.300Z,16.06
2018-08-31T07:08:39.307Z,16.14
2018-08-31T07:09:39.333Z,16.16
2018-08-31T07:10:39.309Z,16.22
2018-08-31T07:11:39.303Z,16.30
2018-08-31T07:12:39.319Z,16.35
2018-08-31T07:13:39.310Z,16.42
2018-08-31T07:14:39.348Z,16.48
2018-08-31T07:15:39.312Z,16.34
2018-08-31T07:16:39.320Z,16.41
2018-08-31T07:17:39.315Z,16.48
2018-08-31T07:18:39.355Z,16.62
2018-08-31T07:19:39.370Z,16.83
2018-08-31T07:20:39.321Z,16.73
2018-08-31T07:21:39.319Z,16.65
2018-08-31T07:22:39.331Z,16.26
2018-08-31T07:23:39.354Z,15.89
2018-08-31T07:24:39.336Z,15.94
2018-08-31T07:25:39.334Z,16.11
2018-08-31T07:26:39.380Z,16.26
2018-08-31T07:27:39.341Z,16.26
2018-08-31T07:28:39.364Z,16.27
2018-08-31T07:29:39.345Z,15.96
2018-08-31T07:30:39.348Z,15.84
2018-08-31T07:31:39.342Z,15.41
2018-08-31T07:32:39.348Z,15.27
2018-08-31T07:33:39.378Z,15.20
2018-08-31T07:34:39.358Z,15.28
2018-08-31T07:35:39.373Z,15.52
2018-08-31T07:36:39.356Z,15.82
2018-08-31T07:37:39.357Z,16.18
2018-08-31T07:38:39.388Z,16.22
2018-08-31T07:39:39.369Z,16.34
2018-08-31T07:40:39.401Z,16.50
2018-08-31T07:41:39.369Z,16.73
2018-08-31T07:42:39.366Z,16.49
2018-08-31T07:43:39.397Z,16.48
2018-08-31T07:44:39.370Z,16.53
2018-08-31T07:45:39.375Z,16.71
2018-08-31T07:46:39.379Z,16.90
2018-08-31T07:47:39.412Z,17.00
2018-08-31T07:48:39.381Z,16.81
2018-08-31T07:49:39.387Z,16.71
2018-08-31T07:50:39.389Z,16.53
2018-08-31T07:51:39.392Z,16.41
2018-08-31T07:52:39.419Z,16.55
2018-08-31T07:53:39.449Z,16.52
2018-08-31T07:54:39.423Z,16.68
2018-08-31T07:55:39.404Z,17.03
2018-08-31T07:56:39.418Z,17.36
2018-08-31T07:57:39.405Z,17.55
2018-08-31T07:58:39.438Z,17.94
2018-08-31T07:59:39.416Z,17.89
2018-08-31T08:00:39.417Z,18.21
2018-08-31T08:01:39.423Z,17.95
2018-08-31T08:02:39.467Z,18.12
2018-08-31T08:03:39.431Z,18.70
2018-08-31T08:04:39.430Z,19.42
2018-08-31T08:05:39.483Z,19.80
2018-08-31T08:06:39.440Z,19.91
2018-08-31T08:07:39.479Z,20.12
2018-08-31T08:08:39.446Z,19.86
2018-08-31T08:09:39.457Z,19.69
2018-08-31T08:10:39.468Z,19.35
2018-08-31T08:11:39.466Z,20.00
2018-08-31T08:12:42.106Z,19.83
2018-08-31T08:13:39.481Z,19.69
2018-08-31T08:14:39.487Z,20.42
2018-08-31T08:15:40.211Z,21.27
2018-08-31T08:16:39.495Z,21.57
2018-08-31T08:17:39.531Z,21.63
2018-08-31T08:18:39.507Z,21.71
2018-08-31T08:19:39.542Z,21.98
2018-08-31T08:20:39.523Z,21.75
2018-08-31T08:21:39.531Z,20.61
2018-08-31T08:22:40.590Z,20.24
2018-08-31T08:23:39.554Z,20.42
2018-08-31T08:24:39.556Z,20.00
2018-08-31T08:25:39.564Z,19.95
2018-08-31T08:26:39.569Z,19.72
2018-08-31T08:27:39.605Z,19.70
2018-08-31T08:28:39.583Z,19.53
2018-08-31T08:29:40.327Z,19.63
2018-08-31T08:30:39.596Z,19.88
2018-08-31T08:31:39.606Z,19.87
2018-08-31T08:32:39.640Z,19.53
2018-08-31T08:33:39.623Z,19.54
2018-08-31T08:34:39.652Z,19.78
2018-08-31T08:35:40.168Z,19.66
2018-08-31T08:36:39.641Z,19.76
2018-08-31T08:37:39.645Z,19.79
2018-08-31T08:38:39.676Z,19.76
2018-08-31T08:39:39.678Z,19.50
2018-08-31T08:40:39.661Z,19.33
2018-08-31T08:41:39.850Z,19.05
2018-08-31T08:42:39.738Z,19.15
2018-08-31T08:43:39.705Z,19.08
2018-08-31T08:44:39.685Z,19.01
2018-08-31T08:45:39.694Z,18.94
2018-08-31T08:46:39.695Z,19.05
2018-08-31T08:47:39.706Z,18.97
2018-08-31T08:48:39.823Z,18.92
2018-08-31T08:49:39.716Z,18.95
2018-08-31T08:50:39.720Z,19.08
2018-08-31T08:51:39.726Z,19.02
2018-08-31T08:52:39.731Z,19.01
2018-08-31T08:53:39.764Z,19.11
2018-08-31T08:54:39.780Z,19.21
2018-08-31T08:55:39.744Z,19.31
2018-08-31T08:56:39.748Z,19.54
2018-08-31T08:57:39.756Z,19.61
2018-08-31T08:58:39.765Z,19.78
2018-08-31T08:59:39.792Z,19.84
2018-08-31T09:00:39.768Z,19.86
2018-08-31T09:01:39.769Z,19.87
2018-08-31T09:02:39.773Z,19.88
2018-08-31T09:03:41.123Z,19.95
2018-08-31T09:04:39.816Z,19.83
2018-08-31T09:05:39.867Z,19.60
2018-08-31T09:06:39.800Z,19.40
2018-08-31T09:07:39.799Z,19.50
2018-08-31T09:08:39.805Z,19.50
2018-08-31T09:09:41.790Z,19.42
2018-08-31T09:10:39.813Z,19.55
2018-08-31T09:11:39.818Z,19.65
2018-08-31T09:12:39.822Z,19.66
2018-08-31T09:13:39.853Z,19.86
2018-08-31T09:14:40.759Z,19.90
2018-08-31T09:15:41.666Z,19.95
2018-08-31T09:16:39.838Z,20.16
2018-08-31T09:17:39.847Z,20.25
2018-08-31T09:18:39.879Z,19.95
2018-08-31T09:19:39.883Z,19.17
2018-08-31T09:20:41.077Z,18.64
2018-08-31T09:21:39.870Z,18.65
2018-08-31T09:22:39.875Z,18.62
2018-08-31T09:23:39.876Z,18.65
2018-08-31T09:24:39.969Z,18.84
2018-08-31T09:25:40.625Z,19.05
2018-08-31T09:26:39.892Z,19.08
2018-08-31T09:27:39.901Z,18.91
2018-08-31T09:28:39.903Z,18.98
2018-08-31T09:29:39.940Z,19.11
2018-08-31T09:30:39.912Z,19.02
2018-08-31T09:31:40.835Z,19.21
2018-08-31T09:32:39.962Z,19.42
2018-08-31T09:33:39.925Z,19.58
2018-08-31T09:34:39.964Z,19.57
2018-08-31T09:35:39.938Z,19.58
2018-08-31T09:36:40.706Z,19.79
2018-08-31T09:37:39.959Z,19.87
2018-08-31T09:38:39.942Z,20.08
2018-08-31T09:39:40.000Z,20.06
2018-08-31T09:40:39.994Z,20.06
2018-08-31T09:41:39.995Z,19.73
2018-08-31T09:42:40.021Z,18.73
2018-08-31T09:43:39.975Z,17.89
2018-08-31T09:44:40.019Z,17.55
2018-08-31T09:45:43.710Z,17.59
2018-08-31T09:46:39.999Z,17.82
2018-08-31T09:47:39.991Z,18.37
2018-08-31T09:48:40.015Z,18.67
2018-08-31T09:49:40.339Z,19.13
2018-08-31T09:50:40.007Z,19.10
2018-08-31T09:51:40.632Z,19.48
2018-08-31T09:52:40.061Z,19.75
2018-08-31T09:53:40.075Z,19.91
2018-08-31T09:54:40.028Z,20.25
2018-08-31T09:55:40.032Z,20.38
2018-08-31T09:56:40.036Z,19.58
2018-08-31T09:57:40.045Z,18.94
2018-08-31T09:58:40.085Z,18.86
2018-08-31T09:59:40.049Z,19.18
2018-08-31T10:00:40.057Z,19.36
2018-08-31T10:01:40.057Z,19.29
2018-08-31T10:02:40.062Z,19.58
2018-08-31T10:03:40.101Z,19.73
2018-08-31T10:04:40.074Z,19.51
2018-08-31T10:05:40.081Z,19.11
2018-08-31T10:06:40.103Z,19.48
2018-08-31T10:07:40.095Z,19.76
2018-08-31T10:08:40.133Z,19.79
2018-08-31T10:09:40.107Z,19.15
2018-08-31T10:10:40.144Z,18.40
2018-08-31T10:11:40.114Z,17.81
2018-08-31T10:12:40.120Z,17.84
2018-08-31T10:13:40.158Z,18.06
2018-08-31T10:14:40.140Z,18.37
2018-08-31T10:15:40.166Z,18.82
2018-08-31T10:16:40.145Z,19.51
2018-08-31T10:17:40.149Z,20.28
2018-08-31T10:18:40.289Z,20.93
2018-08-31T10:19:40.163Z,22.01
2018-08-31T10:20:40.173Z,22.75
2018-08-31T10:21:40.179Z,22.72
2018-08-31T10:22:40.192Z,22.46
2018-08-31T10:23:40.224Z,22.53
2018-08-31T10:24:40.204Z,22.09
2018-08-31T10:25:40.211Z,22.10
2018-08-31T10:26:40.222Z,22.17
2018-08-31T10:27:40.227Z,22.28
2018-08-31T10:28:40.267Z,22.38
2018-08-31T10:29:40.246Z,22.57
2018-08-31T10:30:40.252Z,22.57
2018-08-31T10:31:40.262Z,22.52
2018-08-31T10:32:40.271Z,22.67
2018-08-31T10:33:40.308Z,22.35
2018-08-31T10:34:40.296Z,22.34
2018-08-31T10:35:40.303Z,22.16
2018-08-31T10:36:40.308Z,22.04
2018-08-31T10:37:40.314Z,22.16
2018-08-31T10:38:40.351Z,21.99
2018-08-31T10:39:40.329Z,21.71
2018-08-31T10:40:40.875Z,21.51
2018-08-31T10:41:40.343Z,21.23
2018-08-31T10:42:40.350Z,21.08
2018-08-31T10:43:40.383Z,21.08
2018-08-31T10:44:40.363Z,21.30
2018-08-31T10:45:40.376Z,21.53
2018-08-31T10:46:40.951Z,21.61
2018-08-31T10:47:40.430Z,21.67
2018-08-31T10:48:40.401Z,21.79
2018-08-31T10:49:40.423Z,21.76
2018-08-31T10:50:40.416Z,22.02
2018-08-31T10:51:40.421Z,22.31
2018-08-31T10:52:40.457Z,22.92
2018-08-31T10:53:40.436Z,23.46
2018-08-31T10:54:40.444Z,23.27
2018-08-31T10:55:40.452Z,23.64
2018-08-31T10:56:40.490Z,23.86
2018-08-31T10:57:40.472Z,23.08
2018-08-31T10:58:40.541Z,22.54
2018-08-31T10:59:40.530Z,22.41
2018-08-31T11:00:40.499Z,22.80
2018-08-31T11:01:40.514Z,23.47
2018-08-31T11:02:40.550Z,23.75
2018-08-31T11:03:40.564Z,23.53
2018-08-31T11:04:40.576Z,23.49
2018-08-31T11:05:40.558Z,23.49
2018-08-31T11:06:40.566Z,23.45
2018-08-31T11:07:40.607Z,23.57
2018-08-31T11:08:40.586Z,23.45
2018-08-31T11:09:40.602Z,23.38
2018-08-31T11:10:40.611Z,23.07
2018-08-31T11:11:40.631Z,22.84
2018-08-31T11:12:40.697Z,23.19
2018-08-31T11:13:40.656Z,23.38
2018-08-31T11:14:40.659Z,22.86
2018-08-31T11:15:40.668Z,22.31
2018-08-31T11:16:40.684Z,22.31
2018-08-31T11:17:40.724Z,22.93
2018-08-31T11:18:40.704Z,23.80
2018-08-31T11:19:40.712Z,24.69
2018-08-31T11:20:40.729Z,25.12
2018-08-31T11:21:40.773Z,25.62
2018-08-31T11:22:40.777Z,25.86
2018-08-31T11:23:40.769Z,26.08
2018-08-31T11:24:40.778Z,25.98
2018-08-31T11:25:40.791Z,25.07
2018-08-31T11:26:40.810Z,23.72
2018-08-31T11:27:40.866Z,23.57
2018-08-31T11:28:40.837Z,24.34
2018-08-31T11:29:40.845Z,24.97
2018-08-31T11:30:40.870Z,25.12
2018-08-31T11:31:40.888Z,24.97
2018-08-31T11:32:40.926Z,25.43
2018-08-31T11:33:40.914Z,24.42
2018-08-31T11:34:40.930Z,23.95
2018-08-31T11:35:40.938Z,23.61
2018-08-31T11:36:40.957Z,23.42
2018-08-31T11:37:40.999Z,24.04
2018-08-31T11:38:40.987Z,23.86
2018-08-31T11:39:41.003Z,23.55
2018-08-31T11:40:41.020Z,23.14
2018-08-31T11:41:41.172Z,23.17
2018-08-31T11:42:41.060Z,22.59
2018-08-31T11:43:41.072Z,22.31
2018-08-31T11:44:41.088Z,22.12
2018-08-31T11:45:41.098Z,22.37
2018-08-31T11:46:41.189Z,22.56
2018-08-31T11:47:41.132Z,22.72
2018-08-31T11:48:41.807Z,23.08
2018-08-31T11:49:43.172Z,22.41
2018-08-31T11:50:41.179Z,22.14
2018-08-31T11:51:41.251Z,21.74
2018-08-31T11:52:41.196Z,21.75
2018-08-31T11:53:46.174Z,21.74
2018-08-31T11:54:41.233Z,21.78
2018-08-31T11:55:42.174Z,21.99
2018-08-31T11:56:42.811Z,22.12
2018-08-31T11:57:41.259Z,22.29
2018-08-31T11:58:41.267Z,22.37
2018-08-31T11:59:41.278Z,22.41
2018-08-31T12:00:42.787Z,22.37
2018-08-31T12:01:41.327Z,22.41
2018-08-31T12:02:41.311Z,22.64
2018-08-31T12:03:41.327Z,22.50
2018-08-31T12:04:41.332Z,22.43
2018-08-31T12:05:41.344Z,22.07
2018-08-31T12:06:41.379Z,21.98
2018-08-31T12:07:41.377Z,21.59
2018-08-31T12:08:41.372Z,21.98
2018-08-31T12:09:41.382Z,22.31
2018-08-31T12:10:41.392Z,22.77
2018-08-31T12:11:41.428Z,23.40
2018-08-31T12:12:41.409Z,23.62
2018-08-31T12:13:41.420Z,23.80
2018-08-31T12:14:41.438Z,23.98
2018-08-31T12:15:41.444Z,24.42
2018-08-31T12:16:41.477Z,24.98
2018-08-31T12:17:41.462Z,24.85
2018-08-31T12:18:41.474Z,24.42
2018-08-31T12:19:41.482Z,24.23
2018-08-31T12:20:41.502Z,23.76
2018-08-31T12:21:41.534Z,23.19
2018-08-31T12:22:41.520Z,22.39
2018-08-31T12:23:41.530Z,22.10
2018-08-31T12:24:41.549Z,22.16
2018-08-31T12:25:41.560Z,22.06
2018-08-31T12:26:41.604Z,22.01
2018-08-31T12:27:41.577Z,20.76
2018-08-31T12:28:41.593Z,20.80
2018-08-31T12:29:41.607Z,21.57
2018-08-31T12:30:42.323Z,22.20
2018-08-31T12:31:41.681Z,22.31
2018-08-31T12:32:41.660Z,22.29
2018-08-31T12:33:41.660Z,21.50
2018-08-31T12:34:41.687Z,20.95
2018-08-31T12:35:41.705Z,21.36
2018-08-31T12:36:41.725Z,21.42
2018-08-31T12:37:41.709Z,20.84
2018-08-31T12:38:41.748Z,20.81
2018-08-31T12:39:41.741Z,21.29
2018-08-31T12:40:41.745Z,21.08
2018-08-31T12:41:41.798Z,21.79
2018-08-31T12:42:41.774Z,22.34
2018-08-31T12:43:41.860Z,22.31
2018-08-31T12:44:42.027Z,22.67
2018-08-31T12:45:41.806Z,22.74
2018-08-31T12:46:41.846Z,22.47
2018-08-31T12:47:41.828Z,22.47
2018-08-31T12:48:41.842Z,22.94
2018-08-31T12:49:41.854Z,22.04
2018-08-31T12:50:41.886Z,21.69
2018-08-31T12:51:41.876Z,21.83
2018-08-31T12:52:41.879Z,22.94